createdAt,value
2023-12-02T00:02:22.994Z,9.88
2023-12-02T00:04:55.238Z,9.45
2023-12-02T00:07:25.857Z,10.13
2023-12-02T00:09:55.981Z,10.05
2023-12-02T00:12:25.720Z,10.75
2023-12-02T00:14:55.411Z,10.50
2023-12-02T00:17:25.092Z,12.80
2023-12-02T00:19:54.709Z,11.38
2023-12-02T00:22:24.627Z,10.02
2023-12-02T00:24:54.216Z,11.45
2023-12-02T00:27:23.943Z,10.90
2023-12-02T00:29:53.608Z,11.23
2023-12-02T00:32:28.823Z,10.98
2023-12-02T00:35:00.445Z,11.82
2023-12-02T00:37:30.118Z,11.80
2023-12-02T00:39:59.916Z,11.55
2023-12-02T00:42:29.599Z,10.63
2023-12-02T00:44:59.274Z,10.50
2023-12-02T00:47:30.069Z,9.15
2023-12-02T00:50:00.850Z,11.38
2023-12-02T00:52:30.498Z,11.98
2023-12-02T00:55:00.187Z,10.13
2023-12-02T00:57:29.950Z,10.43
2023-12-02T00:59:59.790Z,10.65
2023-12-02T01:02:29.494Z,10.90
2023-12-02T01:04:59.725Z,11.43
2023-12-02T01:07:29.371Z,11.02
2023-12-02T01:09:59.011Z,10.80
2023-12-02T01:12:28.730Z,12.68
2023-12-02T01:14:58.762Z,11.13
2023-12-02T01:17:28.436Z,10.55
2023-12-02T01:19:58.123Z,10.73
2023-12-02T01:22:27.734Z,10.90
2023-12-02T01:24:57.400Z,12.00
2023-12-02T01:27:27.082Z,10.95
2023-12-02T01:29:56.965Z,13.73
2023-12-02T01:32:26.705Z,11.90
2023-12-02T01:34:56.514Z,11.63
2023-12-02T01:37:26.183Z,12.25
2023-12-02T01:39:55.896Z,10.65
2023-12-02T01:42:25.612Z,12.30
2023-12-02T01:44:55.280Z,12.18
2023-12-02T01:47:24.890Z,10.80
2023-12-02T01:49:55.460Z,12.75
2023-12-02T01:52:25.142Z,9.93
2023-12-02T01:54:54.845Z,13.27
2023-12-02T01:57:24.570Z,11.15
2023-12-02T01:59:57.941Z,11.05
2023-12-02T02:02:28.653Z,9.45
2023-12-02T02:04:58.460Z,11.38
2023-12-02T02:07:28.659Z,12.60
2023-12-02T02:09:58.296Z,12.07
2023-12-02T02:12:28.388Z,12.00
2023-12-02T02:14:58.123Z,11.05
2023-12-02T02:17:27.842Z,11.70
2023-12-02T02:19:57.656Z,12.80
2023-12-02T02:22:27.339Z,10.65
2023-12-02T02:24:56.975Z,11.57
2023-12-02T02:27:26.712Z,11.52
2023-12-02T02:29:56.581Z,12.57
2023-12-02T02:32:26.228Z,12.18
2023-12-02T02:34:56.569Z,12.05
2023-12-02T02:37:26.140Z,10.82
2023-12-02T02:39:58.444Z,10.30
2023-12-02T02:42:28.364Z,12.23
2023-12-02T02:44:58.329Z,9.95
2023-12-02T02:47:27.995Z,10.95
2023-12-02T02:49:57.657Z,11.38
2023-12-02T02:52:27.634Z,11.50
2023-12-02T02:54:57.280Z,15.73
2023-12-02T02:57:26.993Z,10.68
2023-12-02T02:59:56.761Z,10.23
2023-12-02T03:02:26.393Z,9.70
2023-12-02T03:04:56.007Z,10.75
2023-12-02T03:07:25.781Z,11.55
2023-12-02T03:09:55.512Z,10.68
2023-12-02T03:12:25.246Z,13.68
2023-12-02T03:14:55.645Z,10.43
2023-12-02T03:17:25.416Z,11.85
2023-12-02T03:19:55.887Z,10.90
2023-12-02T03:22:25.540Z,11.43
2023-12-02T03:24:55.250Z,10.95
2023-12-02T03:27:24.877Z,10.32
2023-12-02T03:29:54.724Z,10.70
2023-12-02T03:32:24.330Z,10.07
2023-12-02T03:34:53.978Z,11.23
2023-12-02T03:37:23.567Z,11.90
2023-12-02T03:39:53.166Z,11.25
2023-12-02T03:42:22.953Z,10.88
2023-12-02T03:44:52.593Z,9.93
2023-12-02T03:47:22.144Z,10.80
2023-12-02T03:49:51.815Z,11.10
2023-12-02T03:52:21.404Z,10.13
2023-12-02T03:54:51.290Z,10.63
2023-12-02T03:57:21.024Z,11.27
2023-12-02T03:59:50.870Z,10.13
2023-12-02T04:02:20.536Z,9.90
2023-12-02T04:04:50.225Z,9.95
2023-12-02T04:07:23.251Z,10.77
2023-12-02T04:09:52.995Z,10.27
2023-12-02T04:12:22.734Z,9.93
2023-12-02T04:14:52.688Z,11.60
2023-12-02T04:17:22.651Z,10.35
2023-12-02T04:19:52.537Z,10.43
2023-12-02T04:22:22.448Z,10.65
2023-12-02T04:24:52.055Z,9.80
2023-12-02T04:27:21.681Z,11.38
2023-12-02T04:29:51.316Z,10.52
2023-12-02T04:32:20.990Z,11.50
2023-12-02T04:34:50.676Z,10.23
2023-12-02T04:37:20.342Z,11.25
2023-12-02T04:39:50.007Z,10.30
2023-12-02T04:42:19.717Z,11.25
2023-12-02T04:44:49.474Z,10.27
2023-12-02T04:47:19.239Z,9.63
2023-12-02T04:49:48.901Z,9.50
2023-12-02T04:52:19.498Z,12.35
2023-12-02T04:54:49.123Z,11.25
2023-12-02T04:57:18.780Z,10.63
2023-12-02T04:59:48.545Z,11.50
2023-12-02T05:02:21.237Z,12.30
2023-12-02T05:04:51.205Z,12.95
2023-12-02T05:07:20.831Z,10.23
2023-12-02T05:09:50.484Z,11.88
2023-12-02T05:12:20.633Z,10.18
2023-12-02T05:14:50.320Z,9.98
2023-12-02T05:17:20.253Z,11.02
2023-12-02T05:19:49.944Z,10.77
2023-12-02T05:22:19.606Z,9.95
2023-12-02T05:24:49.407Z,9.30
2023-12-02T05:27:19.357Z,10.05
2023-12-02T05:29:48.996Z,9.00
2023-12-02T05:32:18.587Z,9.43
2023-12-02T05:34:48.225Z,10.30
2023-12-02T05:37:17.885Z,11.30
2023-12-02T05:39:47.512Z,9.68
2023-12-02T05:42:17.167Z,10.05
2023-12-02T05:44:46.834Z,10.98
2023-12-02T05:47:16.540Z,9.40
2023-12-02T05:49:47.224Z,11.70
2023-12-02T05:52:17.078Z,12.75
2023-12-02T05:54:46.762Z,10.50
2023-12-02T05:57:16.406Z,11.15
2023-12-02T05:59:46.178Z,9.57
2023-12-02T06:02:15.926Z,9.68
2023-12-02T06:04:45.557Z,10.55
2023-12-02T06:07:15.274Z,10.55
2023-12-02T06:09:48.505Z,11.57
2023-12-02T06:12:18.180Z,15.98
2023-12-02T06:14:47.830Z,10.63
2023-12-02T06:17:17.468Z,11.93
2023-12-02T06:19:47.147Z,11.85
2023-12-02T06:22:17.213Z,15.05
2023-12-02T06:24:46.893Z,15.90
2023-12-02T06:27:16.597Z,17.23
2023-12-02T06:29:46.299Z,10.98
2023-12-02T06:32:15.950Z,15.10
2023-12-02T06:34:45.592Z,13.15
2023-12-02T06:37:15.274Z,14.32
2023-12-02T06:39:45.002Z,14.55
2023-12-02T06:42:14.791Z,14.20
2023-12-02T06:44:48.329Z,11.70
2023-12-02T06:47:18.289Z,12.07
2023-12-02T06:49:48.104Z,12.60
2023-12-02T06:52:17.873Z,13.15
2023-12-02T06:55:31.231Z,14.05
2023-12-02T06:57:37.461Z,12.07
2023-12-02T07:00:12.243Z,16.35
2023-12-02T07:02:41.918Z,15.67
2023-12-02T07:05:11.647Z,12.43
2023-12-02T07:07:41.410Z,14.60
2023-12-02T07:10:12.412Z,12.68
2023-12-02T07:12:42.076Z,12.15
2023-12-02T07:15:12.005Z,11.25
2023-12-02T07:17:41.667Z,12.18
2023-12-02T07:20:11.767Z,14.93
2023-12-02T07:22:41.479Z,12.48
2023-12-02T07:25:11.475Z,12.55
2023-12-02T07:27:41.157Z,15.02
2023-12-02T07:32:43.663Z,12.07
2023-12-02T07:35:13.314Z,10.60
2023-12-02T07:37:43.020Z,11.30
2023-12-02T07:40:13.754Z,12.02
2023-12-02T07:42:43.379Z,12.35
2023-12-02T07:45:13.086Z,11.93
2023-12-02T07:47:43.043Z,11.35
2023-12-02T07:50:13.040Z,9.88
2023-12-02T07:52:42.781Z,12.57
2023-12-02T07:55:12.984Z,10.45
2023-12-02T07:57:42.726Z,12.98
2023-12-02T08:00:12.939Z,11.65
2023-12-02T08:02:42.705Z,12.38
2023-12-02T08:07:45.575Z,13.32
2023-12-02T08:10:15.464Z,10.07
2023-12-02T08:12:45.142Z,10.45
2023-12-02T08:15:14.843Z,11.27
2023-12-02T08:17:44.599Z,12.45
2023-12-02T08:20:14.402Z,10.02
2023-12-02T08:22:44.203Z,10.35
2023-12-02T08:25:14.085Z,11.52
2023-12-02T08:27:43.732Z,9.45
2023-12-02T08:30:13.933Z,11.73
2023-12-02T08:32:43.655Z,12.05
2023-12-02T08:35:13.497Z,10.93
2023-12-02T08:37:43.613Z,12.88
2023-12-02T08:40:13.570Z,10.88
2023-12-02T08:42:43.244Z,11.40
2023-12-02T08:45:13.001Z,10.63
2023-12-02T08:47:43.221Z,11.23
2023-12-02T08:50:13.018Z,13.60
2023-12-02T08:52:43.381Z,11.30
2023-12-02T08:55:14.814Z,11.75
2023-12-02T08:57:44.702Z,12.27
2023-12-02T09:00:15.006Z,11.38
2023-12-02T09:02:44.757Z,12.30
2023-12-02T09:05:14.660Z,12.07
2023-12-02T09:07:44.657Z,10.60
2023-12-02T09:10:14.386Z,13.65
2023-12-02T09:12:44.616Z,12.27
2023-12-02T09:15:19.911Z,14.35
2023-12-02T09:18:11.774Z,11.90
2023-12-02T09:20:46.382Z,12.98
2023-12-02T09:23:17.239Z,14.63
2023-12-02T09:25:47.875Z,13.60
2023-12-02T09:28:21.911Z,15.32
2023-12-02T09:31:09.400Z,14.95
2023-12-02T09:33:41.672Z,12.32
2023-12-02T09:36:11.611Z,14.48
2023-12-02T09:38:41.277Z,15.27
2023-12-02T09:41:27.780Z,13.68
2023-12-02T09:44:00.471Z,13.23
2023-12-02T09:46:47.221Z,14.40
2023-12-02T09:49:26.176Z,12.80
2023-12-02T09:52:04.957Z,12.77
2023-12-02T09:54:56.145Z,13.02
2023-12-02T09:57:47.159Z,12.95
2023-12-02T10:00:33.083Z,14.07
2023-12-02T10:03:19.648Z,13.93
2023-12-02T10:06:21.191Z,15.73
2023-12-02T10:09:16.889Z,11.20
2023-12-02T10:11:50.409Z,17.30
2023-12-02T10:14:22.463Z,16.65
2023-12-02T10:16:55.437Z,16.50
2023-12-02T10:19:39.094Z,12.55
2023-12-02T10:22:09.130Z,14.30
2023-12-02T10:25:08.876Z,14.57
2023-12-02T10:27:39.501Z,12.93
2023-12-02T10:30:19.047Z,13.18
2023-12-02T10:33:13.587Z,13.73
2023-12-02T10:35:47.309Z,12.27
2023-12-02T10:38:35.544Z,11.80
2023-12-02T10:41:14.027Z,16.55
2023-12-02T10:43:47.649Z,12.02
2023-12-02T10:46:17.342Z,11.55
2023-12-02T10:48:47.172Z,13.77
2023-12-02T10:51:17.309Z,11.02
2023-12-02T10:53:47.075Z,12.13
2023-12-02T10:56:22.967Z,12.68
2023-12-02T10:58:53.522Z,11.73
2023-12-02T11:01:30.241Z,10.95
2023-12-02T11:04:28.660Z,10.27
2023-12-02T11:07:01.445Z,11.90
2023-12-02T11:09:45.595Z,11.52
2023-12-02T11:12:25.872Z,11.13
2023-12-02T11:14:57.614Z,11.70
2023-12-02T11:17:45.669Z,10.60
2023-12-02T11:20:23.009Z,11.10
2023-12-02T11:23:01.657Z,10.65
2023-12-02T11:25:53.392Z,12.38
2023-12-02T11:28:38.750Z,10.68
2023-12-02T11:31:26.916Z,10.67
2023-12-02T11:34:10.638Z,9.38
2023-12-02T11:37:08.613Z,10.13
2023-12-02T11:39:48.457Z,11.13
2023-12-02T11:42:20.689Z,9.40
2023-12-02T11:45:20.338Z,11.05
2023-12-02T11:48:05.191Z,11.75
2023-12-02T11:50:46.146Z,9.98
2023-12-02T11:53:43.713Z,9.45
2023-12-02T11:56:20.718Z,9.73
2023-12-02T11:58:57.026Z,10.13
2023-12-02T12:01:43.338Z,8.60
2023-12-02T12:05:05.775Z,10.27
2023-12-02T12:07:55.692Z,9.07
2023-12-02T12:10:35.457Z,9.30
2023-12-02T12:13:05.153Z,9.70
2023-12-02T12:15:34.832Z,11.70
2023-12-02T12:18:05.425Z,9.82
2023-12-02T12:20:35.142Z,10.35
2023-12-02T12:23:04.782Z,10.57
2023-12-02T12:25:36.234Z,9.90
2023-12-02T12:28:07.812Z,9.98
2023-12-02T12:30:58.793Z,11.90
2023-12-02T12:33:28.661Z,9.73
2023-12-02T12:35:58.392Z,12.27
2023-12-02T12:38:30.293Z,10.60
2023-12-02T12:41:00.046Z,9.65
2023-12-02T12:43:29.769Z,10.82
2023-12-02T12:45:59.664Z,11.57
2023-12-02T12:48:29.553Z,10.95
2023-12-02T12:51:00.045Z,11.88
2023-12-02T12:53:34.088Z,12.65
2023-12-02T12:56:14.299Z,10.38
2023-12-02T12:59:02.956Z,11.48
2023-12-02T13:01:36.138Z,11.50
2023-12-02T13:04:23.981Z,12.23
2023-12-02T13:06:59.493Z,11.23
2023-12-02T13:09:32.728Z,9.93
2023-12-02T13:12:16.510Z,10.63
2023-12-02T13:14:52.312Z,10.65
2023-12-02T13:17:22.683Z,13.23
2023-12-02T13:19:52.449Z,12.48
2023-12-02T13:22:22.218Z,11.35
2023-12-02T13:25:23.462Z,11.20
2023-12-02T13:28:23.653Z,12.07
2023-12-02T13:30:53.666Z,11.70
2023-12-02T13:33:48.281Z,12.45
2023-12-02T13:36:42.430Z,10.73
2023-12-02T13:39:36.728Z,11.23
2023-12-02T13:42:11.852Z,11.30
2023-12-02T13:44:43.472Z,12.48
2023-12-02T13:47:13.058Z,10.85
2023-12-02T13:49:47.737Z,11.15
2023-12-02T13:52:50.285Z,10.85
2023-12-02T13:55:35.484Z,12.60
2023-12-02T13:58:24.053Z,10.57
2023-12-02T14:01:06.058Z,10.55
2023-12-02T14:03:47.076Z,14.50
2023-12-02T14:06:23.477Z,12.93
2023-12-02T14:08:58.703Z,13.40
2023-12-02T14:11:35.698Z,14.30
2023-12-02T14:14:18.202Z,11.65
2023-12-02T14:17:09.899Z,12.80
2023-12-02T14:19:54.604Z,13.98
2023-12-02T14:22:26.969Z,13.63
2023-12-02T14:25:14.480Z,12.25
2023-12-02T14:27:51.679Z,12.38
2023-12-02T14:30:35.894Z,12.70
2023-12-02T14:33:13.973Z,13.02
2023-12-02T14:36:15.921Z,12.43
2023-12-02T14:39:20.104Z,13.13
2023-12-02T14:42:09.121Z,12.73
2023-12-02T14:44:38.761Z,11.00
2023-12-02T14:47:09.391Z,10.73
2023-12-02T14:49:47.011Z,11.52
2023-12-02T14:52:16.732Z,12.50
2023-12-02T14:54:47.319Z,11.23
2023-12-02T14:57:28.328Z,12.63
2023-12-02T15:00:24.158Z,10.95
2023-12-02T15:02:54.273Z,12.90
2023-12-02T15:05:23.958Z,12.23
2023-12-02T15:07:56.852Z,10.98
2023-12-02T15:10:34.138Z,10.02
2023-12-02T15:13:09.620Z,11.68
2023-12-02T15:15:48.639Z,12.73
2023-12-02T15:18:27.549Z,12.45
2023-12-02T15:21:12.666Z,9.77
2023-12-02T15:23:49.483Z,10.98
2023-12-02T15:26:20.316Z,10.98
2023-12-02T15:28:56.678Z,10.45
2023-12-02T15:31:26.425Z,10.63
2023-12-02T15:33:59.872Z,10.23
2023-12-02T15:36:30.492Z,9.82
2023-12-02T15:39:01.355Z,10.38
2023-12-02T15:41:31.189Z,11.40
2023-12-02T15:44:01.280Z,12.45
2023-12-02T15:46:31.308Z,10.27
2023-12-02T15:49:01.108Z,11.95
2023-12-02T15:51:33.012Z,11.45
2023-12-02T15:54:02.950Z,10.48
2023-12-02T15:56:33.678Z,11.73
2023-12-02T15:59:03.977Z,11.00
2023-12-02T16:01:33.651Z,10.65
2023-12-02T16:04:03.335Z,10.80
2023-12-02T16:06:33.693Z,11.27
2023-12-02T16:09:03.311Z,10.73
2023-12-02T16:11:38.942Z,11.18
2023-12-02T16:16:40.129Z,11.60
2023-12-02T16:19:09.844Z,10.35
2023-12-02T16:21:39.520Z,12.23
2023-12-02T16:24:09.595Z,10.43
2023-12-02T16:26:39.668Z,10.40
2023-12-02T16:29:09.283Z,12.18
2023-12-02T16:31:39.200Z,9.52
2023-12-02T16:34:08.820Z,10.55
2023-12-02T16:36:39.625Z,11.02
2023-12-02T16:39:13.090Z,11.25
2023-12-02T16:41:44.153Z,10.57
2023-12-02T16:44:13.799Z,12.32
2023-12-02T16:46:46.892Z,10.65
2023-12-02T16:49:20.902Z,11.88
2023-12-02T16:51:50.848Z,11.45
2023-12-02T16:54:20.620Z,11.75
2023-12-02T16:56:50.311Z,11.70
2023-12-02T16:59:50.430Z,10.02
2023-12-02T17:02:37.786Z,11.73
2023-12-02T17:05:07.816Z,11.07
2023-12-02T17:07:38.024Z,10.02
2023-12-02T17:10:16.630Z,12.43
2023-12-02T17:12:46.685Z,10.98
2023-12-02T17:15:29.275Z,9.50
2023-12-02T17:18:01.678Z,12.57
2023-12-02T17:20:31.359Z,10.10
2023-12-02T17:23:01.024Z,10.45
2023-12-02T17:25:51.978Z,12.45
2023-12-02T17:28:21.558Z,10.77
2023-12-02T17:30:51.218Z,12.88
2023-12-02T17:33:21.253Z,11.32
2023-12-02T17:35:50.892Z,9.88
2023-12-02T17:38:20.509Z,10.02
2023-12-02T17:40:50.304Z,9.50
2023-12-02T17:43:19.969Z,10.93
2023-12-02T17:45:49.610Z,10.55
2023-12-02T17:48:19.362Z,10.82
2023-12-02T17:50:49.415Z,11.98
2023-12-02T17:53:21.857Z,10.50
2023-12-02T17:55:53.423Z,13.30
2023-12-02T17:58:23.126Z,13.15
2023-12-02T18:00:52.909Z,12.88
2023-12-02T18:03:22.744Z,11.10
2023-12-02T18:05:52.350Z,9.60
2023-12-02T18:08:21.952Z,11.90
2023-12-02T18:10:53.035Z,11.18
2023-12-02T18:13:22.606Z,11.10
2023-12-02T18:15:52.336Z,12.02
2023-12-02T18:18:22.120Z,12.15
2023-12-02T18:20:52.413Z,10.60
2023-12-02T18:23:25.466Z,11.45
2023-12-02T18:25:55.159Z,11.93
2023-12-02T18:28:24.787Z,12.32
2023-12-02T18:30:54.462Z,10.73
2023-12-02T18:33:24.335Z,11.95
2023-12-02T18:35:54.140Z,11.73
2023-12-02T18:38:25.019Z,11.98
2023-12-02T18:40:54.681Z,11.50
2023-12-02T18:43:24.371Z,12.77
2023-12-02T18:45:54.063Z,11.27
2023-12-02T18:48:23.851Z,11.70
2023-12-02T18:50:53.619Z,12.80
2023-12-02T18:53:23.244Z,13.05
2023-12-02T18:55:52.920Z,12.65
2023-12-02T18:58:23.870Z,13.10
2023-12-02T19:00:53.528Z,12.23
2023-12-02T19:03:23.373Z,11.77
2023-12-02T19:05:53.123Z,12.60
2023-12-02T19:08:23.968Z,12.45
2023-12-02T19:10:53.635Z,12.55
2023-12-02T19:13:23.259Z,11.73
2023-12-02T19:15:52.892Z,12.48
2023-12-02T19:18:22.595Z,12.85
2023-12-02T19:20:52.222Z,12.75
2023-12-02T19:23:22.071Z,12.90
2023-12-02T19:25:51.965Z,11.15
2023-12-02T19:28:21.672Z,12.75
2023-12-02T19:30:51.519Z,13.73
2023-12-02T19:33:21.260Z,13.13
2023-12-02T19:35:51.282Z,13.35
2023-12-02T19:38:20.945Z,12.88
2023-12-02T19:40:50.628Z,11.57
2023-12-02T19:43:20.359Z,12.52
2023-12-02T19:45:50.116Z,12.13
2023-12-02T19:48:19.824Z,15.13
2023-12-02T19:50:49.499Z,13.35
2023-12-02T19:53:19.169Z,14.65
2023-12-02T19:55:48.810Z,14.52
2023-12-02T19:58:19.164Z,15.35
2023-12-02T20:00:49.000Z,15.82
2023-12-02T20:03:18.761Z,13.23
2023-12-02T20:05:48.530Z,12.63
2023-12-02T20:08:18.213Z,12.43
2023-12-02T20:10:48.384Z,15.63
2023-12-02T20:13:18.088Z,13.35
2023-12-02T20:15:48.319Z,13.10
2023-12-02T20:18:18.061Z,12.98
2023-12-02T20:20:48.418Z,11.80
2023-12-02T20:23:18.206Z,13.45
2023-12-02T20:25:47.844Z,12.60
2023-12-02T20:28:17.510Z,14.73
2023-12-02T20:30:47.211Z,13.00
2023-12-02T20:33:17.038Z,12.55
2023-12-02T20:35:46.769Z,14.63
2023-12-02T20:38:16.430Z,12.70
2023-12-02T20:40:46.063Z,13.75
2023-12-02T20:43:19.139Z,14.32
2023-12-02T20:45:48.869Z,15.82
2023-12-02T20:48:18.944Z,12.07
2023-12-02T20:50:49.425Z,14.75
2023-12-02T20:53:19.119Z,14.05
2023-12-02T20:55:48.753Z,14.15
2023-12-02T20:58:18.345Z,13.95
2023-12-02T21:00:50.428Z,13.07
2023-12-02T21:03:20.182Z,14.45
2023-12-02T21:05:49.955Z,11.77
2023-12-02T21:08:19.654Z,14.85
2023-12-02T21:10:49.279Z,15.57
2023-12-02T21:13:18.885Z,13.50
2023-12-02T21:15:48.756Z,15.95
2023-12-02T21:18:18.621Z,13.80
2023-12-02T21:20:48.292Z,14.00
2023-12-02T21:23:18.208Z,14.88
2023-12-02T21:25:47.829Z,13.98
2023-12-02T21:28:17.591Z,14.02
2023-12-02T21:30:47.629Z,15.40
2023-12-02T21:33:20.153Z,12.88
2023-12-02T21:35:56.918Z,14.15
2023-12-02T21:38:35.163Z,14.80
2023-12-02T21:41:11.162Z,13.90
2023-12-02T21:43:41.083Z,13.13
2023-12-02T21:46:15.594Z,14.13
2023-12-02T21:48:48.480Z,14.38
2023-12-02T21:51:31.228Z,15.27
2023-12-02T21:54:02.237Z,16.05
2023-12-02T21:56:40.903Z,14.82
2023-12-02T21:59:11.636Z,15.93
2023-12-02T22:01:42.976Z,13.55
2023-12-02T22:04:26.229Z,14.90
2023-12-02T22:06:59.501Z,14.95
2023-12-02T22:09:40.403Z,16.38
2023-12-02T22:12:30.678Z,17.00
2023-12-02T22:15:02.595Z,15.38
2023-12-02T22:17:34.255Z,14.02
2023-12-02T22:20:04.220Z,14.35
2023-12-02T22:22:58.899Z,15.95
2023-12-02T22:25:30.706Z,13.40
2023-12-02T22:28:08.206Z,14.02
2023-12-02T22:30:45.496Z,15.45
2023-12-02T22:33:33.453Z,14.88
2023-12-02T22:36:12.106Z,15.57
2023-12-02T22:38:44.630Z,17.75
2023-12-02T22:41:19.097Z,14.15
2023-12-02T22:43:52.408Z,14.20
2023-12-02T22:46:25.740Z,15.27
2023-12-02T22:48:56.002Z,12.18
2023-12-02T22:51:32.278Z,14.07
2023-12-02T22:54:01.928Z,16.02
2023-12-02T22:56:39.143Z,13.82
2023-12-02T22:59:10.754Z,14.80
2023-12-02T23:01:40.401Z,14.30
2023-12-02T23:04:23.716Z,14.25
2023-12-02T23:06:53.406Z,15.70
2023-12-02T23:09:33.776Z,15.43
2023-12-02T23:12:07.522Z,13.82
2023-12-02T23:14:59.173Z,15.43
2023-12-02T23:17:29.799Z,15.82
2023-12-02T23:20:02.665Z,15.07
2023-12-02T23:22:32.345Z,15.13
2023-12-02T23:25:02.029Z,13.00
2023-12-02T23:27:44.782Z,12.95
2023-12-02T23:30:20.178Z,15.57
2023-12-02T23:32:50.388Z,16.77
2023-12-02T23:35:24.323Z,15.40
2023-12-02T23:37:55.208Z,14.63
2023-12-02T23:40:31.694Z,14.20
2023-12-02T23:43:01.956Z,13.10
2023-12-02T23:45:31.801Z,13.80
2023-12-02T23:48:01.552Z,12.85
2023-12-02T23:50:31.249Z,16.75
2023-12-02T23:53:00.912Z,16.08
2023-12-02T23:55:30.481Z,15.15
2023-12-02T23:58:00.898Z,14.45
